createdAt,value
2023-01-06T00:00:14.065Z,312.30
2023-01-06T00:01:09.156Z,315.91
2023-01-06T00:02:04.333Z,314.39
2023-01-06T00:02:59.198Z,315.60
2023-01-06T00:03:54.314Z,312.00
2023-01-06T00:04:49.426Z,313.19
2023-01-06T00:05:44.555Z,318.98
2023-01-06T00:06:40.428Z,316.52
2023-01-06T00:07:34.625Z,318.98
2023-01-06T00:08:35.139Z,319.60
2023-01-06T00:09:30.350Z,318.98
2023-01-06T00:10:25.632Z,320.54
2023-01-06T00:11:21.440Z,321.16
2023-01-06T00:12:16.692Z,315.91
2023-01-06T00:13:11.789Z,314.09
2023-01-06T00:14:08.168Z,316.52
2023-01-06T00:15:03.304Z,318.36
2023-01-06T00:15:59.168Z,320.85
2023-01-06T00:16:54.344Z,323.38
2023-01-06T00:17:49.426Z,323.38
2023-01-06T00:18:45.291Z,326.92
2023-01-06T00:19:40.438Z,325.30
2023-01-06T00:20:36.369Z,321.16
2023-01-06T00:21:31.478Z,319.91
2023-01-06T00:22:26.580Z,321.48
2023-01-06T00:23:22.419Z,320.85
2023-01-06T00:24:17.784Z,322.11
2023-01-06T00:25:13.004Z,325.62
2023-01-06T00:26:09.364Z,327.90
2023-01-06T00:27:04.487Z,329.55
2023-01-06T00:28:00.315Z,331.21
2023-01-06T00:28:55.377Z,328.23
2023-01-06T00:29:51.379Z,325.30
2023-01-06T00:30:46.427Z,320.54
2023-01-06T00:31:41.673Z,319.29
2023-01-06T00:32:37.530Z,323.38
2023-01-06T00:33:32.772Z,320.22
2023-01-06T00:34:28.032Z,321.16
2023-01-06T00:35:23.763Z,316.82
2023-01-06T00:36:18.847Z,315.60
2023-01-06T00:37:14.084Z,318.67
2023-01-06T00:38:10.440Z,318.36
2023-01-06T00:39:05.587Z,320.85
2023-01-06T00:40:01.383Z,324.34
2023-01-06T00:40:56.731Z,326.60
2023-01-06T00:41:51.745Z,330.88
2023-01-06T00:42:47.569Z,331.88
2023-01-06T00:43:42.694Z,331.21
2023-01-06T00:44:38.490Z,336.65
2023-01-06T00:45:33.667Z,339.08
2023-01-06T00:46:29.345Z,339.44
2023-01-06T00:47:24.891Z,343.34
2023-01-06T00:48:20.028Z,340.14
2023-01-06T00:49:15.213Z,345.51
2023-01-06T00:50:11.578Z,343.34
2023-01-06T00:51:06.697Z,341.20
2023-01-06T00:52:02.640Z,340.49
2023-01-06T00:52:57.614Z,338.39
2023-01-06T00:53:52.727Z,334.93
2023-01-06T00:54:48.611Z,338.73
2023-01-06T00:55:43.720Z,335.96
2023-01-06T00:56:39.646Z,330.55
2023-01-06T00:57:34.748Z,326.27
2023-01-06T00:58:29.998Z,330.21
2023-01-06T00:59:25.699Z,329.88
2023-01-06T01:00:20.792Z,325.62
2023-01-06T01:01:16.129Z,326.92
2023-01-06T01:02:12.431Z,319.29
2023-01-06T01:03:07.682Z,294.10
2023-01-06T01:04:03.514Z,282.46
2023-01-06T01:04:58.613Z,287.66
2023-01-06T01:05:53.873Z,280.05
2023-01-06T01:06:48.985Z,275.11
2023-01-06T01:07:43.950Z,279.09
2023-01-06T01:08:39.783Z,280.52
2023-01-06T01:09:34.875Z,283.68
2023-01-06T01:10:30.246Z,285.65
2023-01-06T01:11:26.465Z,288.16
2023-01-06T01:12:21.729Z,291.23
2023-01-06T01:13:17.548Z,297.03
2023-01-06T01:14:12.784Z,298.11
2023-01-06T01:15:08.044Z,297.57
2023-01-06T01:16:03.796Z,298.65
2023-01-06T01:16:58.944Z,300.02
2023-01-06T01:17:54.781Z,297.84
2023-01-06T01:18:49.860Z,297.57
2023-01-06T01:19:45.264Z,295.69
2023-01-06T01:20:40.916Z,294.63
2023-01-06T01:21:36.165Z,298.38
2023-01-06T01:22:31.248Z,305.04
2023-01-06T01:23:26.467Z,305.61
2023-01-06T01:24:21.708Z,306.46
2023-01-06T01:25:16.693Z,307.61
2023-01-06T01:26:11.718Z,311.70
2023-01-06T01:27:10.495Z,317.43
2023-01-06T01:28:05.566Z,324.02
2023-01-06T01:29:00.962Z,328.56
2023-01-06T01:29:55.926Z,332.89
2023-01-06T01:30:51.132Z,329.88
2023-01-06T01:31:45.978Z,332.55
2023-01-06T01:32:41.132Z,335.62
2023-01-06T01:33:36.205Z,334.93
2023-01-06T01:34:31.250Z,333.23
2023-01-06T01:35:26.331Z,329.88
2023-01-06T01:36:21.763Z,311.41
2023-01-06T01:37:16.719Z,309.06
2023-01-06T01:38:11.818Z,311.70
2023-01-06T01:39:06.796Z,319.29
2023-01-06T01:40:01.933Z,321.79
2023-01-06T01:40:57.012Z,317.74
2023-01-06T01:41:52.255Z,315.00
2023-01-06T01:42:47.327Z,316.82
2023-01-06T01:43:42.369Z,320.54
2023-01-06T01:44:37.346Z,319.29
2023-01-06T01:45:32.418Z,322.42
2023-01-06T01:46:27.511Z,322.11
2023-01-06T01:47:22.477Z,320.22
2023-01-06T01:48:17.705Z,322.11
2023-01-06T01:49:12.826Z,323.70
2023-01-06T01:50:07.904Z,325.30
2023-01-06T01:51:02.932Z,330.21
2023-01-06T01:51:58.107Z,331.88
2023-01-06T01:52:53.048Z,333.23
2023-01-06T01:53:48.039Z,335.27
2023-01-06T01:54:43.193Z,335.62
2023-01-06T01:55:38.175Z,335.62
2023-01-06T01:56:33.511Z,336.30
2023-01-06T01:57:29.730Z,332.89
2023-01-06T01:58:24.979Z,335.62
2023-01-06T01:59:20.767Z,334.25
2023-01-06T02:00:15.880Z,342.27
2023-01-06T02:01:11.136Z,348.82
2023-01-06T02:02:07.123Z,353.71
2023-01-06T02:03:02.039Z,357.17
2023-01-06T02:03:57.986Z,359.52
2023-01-06T02:04:52.950Z,360.70
2023-01-06T02:05:48.245Z,365.53
2023-01-06T02:06:44.059Z,366.75
2023-01-06T02:07:39.297Z,367.99
2023-01-06T02:08:34.500Z,371.74
2023-01-06T02:09:30.882Z,373.43
2023-01-06T02:10:25.983Z,372.16
2023-01-06T02:11:21.824Z,372.16
2023-01-06T02:12:17.003Z,380.39
2023-01-06T02:13:12.285Z,376.00
2023-01-06T02:14:07.986Z,378.17
2023-01-06T02:15:03.122Z,374.28
2023-01-06T02:15:58.972Z,374.71
2023-01-06T02:16:54.025Z,373.01
2023-01-06T02:17:49.421Z,374.28
2023-01-06T02:18:45.100Z,376.86
2023-01-06T02:19:40.357Z,377.30
2023-01-06T02:20:35.876Z,376.00
2023-01-06T02:21:31.939Z,377.73
2023-01-06T02:22:27.098Z,374.28
2023-01-06T02:23:22.930Z,371.74
2023-01-06T02:24:17.992Z,372.16
2023-01-06T02:25:13.135Z,373.86
2023-01-06T02:26:08.946Z,373.43
2023-01-06T02:27:04.104Z,371.32
2023-01-06T02:27:59.885Z,370.06
2023-01-06T02:28:55.101Z,370.06
2023-01-06T02:29:50.345Z,370.48
2023-01-06T02:30:46.198Z,377.73
2023-01-06T02:31:41.414Z,376.86
2023-01-06T02:32:36.512Z,380.18
2023-01-06T02:33:32.983Z,381.92
2023-01-06T02:34:28.223Z,384.34
2023-01-06T02:35:24.013Z,383.68
2023-01-06T02:36:19.139Z,384.79
2023-01-06T02:37:14.275Z,383.68
2023-01-06T02:38:10.866Z,379.31
2023-01-06T02:39:06.573Z,382.14
2023-01-06T02:40:01.017Z,368.81
2023-01-06T02:40:56.798Z,357.95
2023-01-06T02:41:52.056Z,356.40
2023-01-06T02:42:47.255Z,362.70
2023-01-06T02:43:43.602Z,359.91
2023-01-06T02:44:38.878Z,358.34
2023-01-06T02:45:34.600Z,357.95
2023-01-06T02:46:29.651Z,359.13
2023-01-06T02:47:25.024Z,357.56
2023-01-06T02:48:20.717Z,362.30
2023-01-06T02:49:15.835Z,366.75
2023-01-06T02:50:11.629Z,364.71
2023-01-06T02:51:06.928Z,367.58
2023-01-06T02:52:02.141Z,370.90
2023-01-06T02:52:57.253Z,362.70
2023-01-06T02:53:52.339Z,358.73
2023-01-06T02:54:47.462Z,356.40
2023-01-06T02:55:42.539Z,356.40
2023-01-06T02:56:37.543Z,348.08
2023-01-06T02:57:37.134Z,339.08
2023-01-06T02:58:32.332Z,343.70
2023-01-06T02:59:27.542Z,351.81
2023-01-06T03:00:22.706Z,354.85
2023-01-06T03:01:19.099Z,363.10
2023-01-06T03:02:14.366Z,366.75
2023-01-06T03:03:09.409Z,368.40
2023-01-06T03:04:08.684Z,367.99
2023-01-06T03:06:28.622Z,323.38
2023-01-06T03:07:23.719Z,332.22
2023-01-06T03:08:19.034Z,340.49
2023-01-06T03:09:14.245Z,351.06
2023-01-06T03:10:09.312Z,355.24
2023-01-06T03:11:04.531Z,363.50
2023-01-06T03:11:59.837Z,368.81
2023-01-06T03:12:54.870Z,376.43
2023-01-06T03:13:49.933Z,383.46
2023-01-06T03:14:45.077Z,387.02
2023-01-06T03:15:40.148Z,389.73
2023-01-06T03:16:35.514Z,392.72
2023-01-06T03:17:30.509Z,397.16
2023-01-06T03:18:25.715Z,404.88
2023-01-06T03:19:20.780Z,408.10
2023-01-06T03:20:16.229Z,414.44
2023-01-06T03:21:11.149Z,412.90
2023-01-06T03:22:06.268Z,414.70
2023-01-06T03:23:01.337Z,414.70
2023-01-06T03:23:56.625Z,413.92
2023-01-06T03:24:51.705Z,413.67
2023-01-06T03:25:47.417Z,409.10
2023-01-06T03:26:42.203Z,393.41
2023-01-06T03:27:37.378Z,398.11
2023-01-06T03:28:32.500Z,399.30
2023-01-06T03:29:27.586Z,396.92
2023-01-06T03:30:22.657Z,400.50
2023-01-06T03:31:17.826Z,403.16
2023-01-06T03:32:12.803Z,409.60
2023-01-06T03:33:08.614Z,415.47
2023-01-06T03:34:03.164Z,420.45
2023-01-06T03:34:58.437Z,426.09
2023-01-06T03:35:53.632Z,431.05
2023-01-06T03:36:48.820Z,434.14
2023-01-06T03:37:43.922Z,434.14
2023-01-06T03:38:39.051Z,434.70
2023-01-06T03:39:34.145Z,430.77
2023-01-06T03:40:29.357Z,428.83
2023-01-06T03:41:24.441Z,427.73
2023-01-06T03:42:35.239Z,428.83
2023-01-06T03:43:15.675Z,428.56
2023-01-06T03:44:09.899Z,428.01
2023-01-06T03:45:05.005Z,429.11
2023-01-06T03:46:00.223Z,428.83
2023-01-06T03:46:55.454Z,430.77
2023-01-06T03:47:50.419Z,431.05
2023-01-06T03:48:45.646Z,433.01
2023-01-06T03:49:40.772Z,434.42
2023-01-06T03:50:35.843Z,435.84
2023-01-06T03:51:31.099Z,437.27
2023-01-06T03:52:26.199Z,434.14
2023-01-06T03:53:21.305Z,436.12
2023-01-06T03:54:16.424Z,438.13
2023-01-06T03:55:11.646Z,437.55
2023-01-06T03:56:06.875Z,432.17
2023-01-06T03:57:01.986Z,428.56
2023-01-06T03:57:57.104Z,425.28
2023-01-06T03:58:52.628Z,426.91
2023-01-06T03:59:47.647Z,429.94
2023-01-06T04:00:42.942Z,430.21
2023-01-06T04:01:38.087Z,431.61
2023-01-06T04:02:33.341Z,428.56
2023-01-06T04:03:28.465Z,425.82
2023-01-06T04:04:23.612Z,423.65
2023-01-06T04:05:18.703Z,426.09
2023-01-06T04:06:13.958Z,428.01
2023-01-06T04:07:09.114Z,433.29
2023-01-06T04:08:04.495Z,434.70
2023-01-06T04:08:59.625Z,438.13
2023-01-06T04:09:54.806Z,441.61
2023-01-06T04:10:49.935Z,445.45
2023-01-06T04:11:45.087Z,450.56
2023-01-06T04:12:40.224Z,455.80
2023-01-06T04:13:35.712Z,459.57
2023-01-06T04:14:30.734Z,463.72
2023-01-06T04:15:25.867Z,464.37
2023-01-06T04:16:21.008Z,466.97
2023-01-06T04:17:16.151Z,469.27
2023-01-06T04:18:11.238Z,468.94
2023-01-06T04:19:06.768Z,468.94
2023-01-06T04:20:01.774Z,476.31
2023-01-06T04:20:57.071Z,474.28
2023-01-06T04:21:52.207Z,476.99
2023-01-06T04:22:47.524Z,474.28
2023-01-06T04:23:42.661Z,474.95
2023-01-06T04:24:37.799Z,476.65
2023-01-06T04:25:32.953Z,474.28
2023-01-06T04:26:28.219Z,472.60
2023-01-06T04:27:23.364Z,471.93
2023-01-06T04:28:18.683Z,469.60
2023-01-06T04:29:13.931Z,465.99
2023-01-06T04:30:09.105Z,464.69
2023-01-06T04:31:04.217Z,467.62
2023-01-06T04:31:59.383Z,466.32
2023-01-06T04:32:54.514Z,467.30
2023-01-06T04:33:49.916Z,467.95
2023-01-06T04:34:44.979Z,467.62
2023-01-06T04:35:40.239Z,463.72
2023-01-06T04:36:35.546Z,465.02
2023-01-06T04:37:31.935Z,463.08
2023-01-06T04:38:27.058Z,464.69
2023-01-06T04:39:22.520Z,466.32
2023-01-06T04:40:17.657Z,466.32
2023-01-06T04:41:12.924Z,462.44
2023-01-06T04:42:08.046Z,461.80
2023-01-06T04:43:03.320Z,460.52
2023-01-06T04:43:58.720Z,463.72
2023-01-06T04:44:53.880Z,463.08
2023-01-06T04:45:49.027Z,466.97
2023-01-06T04:46:44.315Z,471.26
2023-01-06T04:47:39.465Z,472.26
2023-01-06T04:48:34.733Z,476.99
2023-01-06T04:49:30.103Z,475.29
2023-01-06T04:50:25.164Z,475.63
2023-01-06T04:51:20.314Z,472.26
2023-01-06T04:52:15.470Z,476.65
2023-01-06T04:53:10.607Z,481.47
2023-01-06T04:54:05.910Z,487.45
2023-01-06T04:55:00.929Z,492.86
2023-01-06T04:55:56.204Z,495.05
2023-01-06T04:56:51.592Z,500.62
2023-01-06T04:57:46.642Z,502.13
2023-01-06T04:58:41.773Z,502.89
2023-01-06T04:59:37.090Z,499.88
2023-01-06T05:00:32.099Z,501.00
2023-01-06T05:01:27.663Z,505.56
2023-01-06T05:02:22.562Z,509.03
2023-01-06T05:03:18.279Z,509.03
2023-01-06T05:04:13.074Z,510.20
2023-01-06T05:05:08.108Z,510.59
2023-01-06T05:06:03.292Z,514.53
2023-01-06T05:06:58.467Z,515.33
2023-01-06T05:07:53.603Z,515.33
2023-01-06T05:08:48.648Z,517.33
2023-01-06T05:09:43.658Z,516.53
2023-01-06T05:10:38.689Z,510.20
2023-01-06T05:11:33.704Z,506.33
2023-01-06T05:12:28.855Z,502.51
2023-01-06T05:13:23.986Z,496.89
2023-01-06T05:14:21.374Z,492.49
2023-01-06T05:15:14.165Z,495.05
2023-01-06T05:16:09.579Z,491.77
2023-01-06T05:17:04.179Z,492.13
2023-01-06T05:17:59.201Z,492.13
2023-01-06T05:18:54.248Z,491.40
2023-01-06T05:19:49.273Z,492.49
2023-01-06T05:20:44.324Z,493.58
2023-01-06T05:21:39.460Z,498.38
2023-01-06T05:22:34.367Z,501.00
2023-01-06T05:23:29.423Z,500.62
2023-01-06T05:24:28.377Z,497.27
2023-01-06T05:25:23.257Z,501.76
2023-01-06T05:26:18.344Z,507.87
2023-01-06T05:27:13.342Z,509.03
2023-01-06T05:28:08.429Z,513.74
2023-01-06T05:29:03.436Z,516.12
2023-01-06T05:29:58.543Z,518.13
2023-01-06T05:30:53.653Z,517.33
2023-01-06T05:31:48.827Z,516.92
2023-01-06T05:32:43.668Z,518.53
2023-01-06T05:33:38.725Z,515.33
2023-01-06T05:34:33.768Z,515.73
2023-01-06T05:35:29.314Z,517.33
2023-01-06T05:36:24.456Z,523.42
2023-01-06T05:37:19.770Z,527.14
2023-01-06T05:38:15.483Z,529.23
2023-01-06T05:39:10.792Z,531.77
2023-01-06T05:40:06.715Z,533.89
2023-01-06T05:41:01.922Z,536.90
2023-01-06T05:41:57.250Z,543.02
2023-01-06T05:42:53.183Z,542.14
2023-01-06T05:43:48.284Z,539.07
2023-01-06T05:44:43.635Z,539.07
2023-01-06T05:45:39.880Z,542.14
2023-01-06T05:46:34.998Z,548.83
2023-01-06T05:47:31.176Z,551.10
2023-01-06T05:48:26.227Z,553.85
2023-01-06T05:49:21.654Z,558.49
2023-01-06T05:50:17.371Z,560.36
2023-01-06T05:51:12.704Z,563.68
2023-01-06T05:52:10.975Z,562.73
2023-01-06T05:53:03.546Z,563.20
2023-01-06T05:53:58.997Z,560.36
2023-01-06T05:54:54.125Z,557.55
2023-01-06T05:55:50.057Z,554.77
2023-01-06T05:56:45.342Z,550.19
2023-01-06T05:57:40.965Z,549.29
2023-01-06T05:58:36.257Z,548.38
2023-01-06T05:59:31.544Z,546.59
2023-01-06T06:00:26.674Z,539.51
2023-01-06T06:01:23.120Z,531.77
2023-01-06T06:02:18.340Z,527.14
2023-01-06T06:03:14.315Z,523.01
2023-01-06T06:04:09.371Z,523.42
2023-01-06T06:05:04.494Z,523.01
2023-01-06T06:06:00.309Z,523.42
2023-01-06T06:06:55.553Z,524.24
2023-01-06T06:07:51.468Z,525.89
2023-01-06T06:08:46.636Z,528.39
2023-01-06T06:09:41.880Z,528.81
2023-01-06T06:10:37.709Z,534.75
2023-01-06T06:11:32.986Z,543.91
2023-01-06T06:12:28.196Z,548.83
2023-01-06T06:13:24.591Z,547.48
2023-01-06T06:14:19.582Z,548.38
2023-01-06T06:15:15.317Z,548.83
2023-01-06T06:16:10.742Z,547.48
2023-01-06T06:17:05.969Z,545.69
2023-01-06T06:18:01.664Z,544.80
2023-01-06T06:18:56.900Z,540.82
2023-01-06T06:19:52.748Z,534.32
2023-01-06T06:20:48.008Z,533.04
2023-01-06T06:21:43.286Z,528.81
2023-01-06T06:22:38.277Z,527.98
2023-01-06T06:23:33.400Z,526.72
2023-01-06T06:24:29.410Z,527.56
2023-01-06T06:25:24.580Z,525.48
2023-01-06T06:26:20.415Z,520.15
2023-01-06T06:27:15.553Z,518.13
2023-01-06T06:28:10.533Z,519.34
2023-01-06T06:29:06.395Z,510.98
2023-01-06T06:30:01.562Z,512.95
2023-01-06T06:30:57.149Z,519.34
2023-01-06T06:31:53.164Z,523.83
2023-01-06T06:32:48.461Z,526.72
2023-01-06T06:33:44.337Z,533.47
2023-01-06T06:34:39.627Z,534.32
2023-01-06T06:35:34.950Z,537.34
2023-01-06T06:36:30.728Z,529.65
2023-01-06T06:37:25.896Z,533.04
2023-01-06T06:38:21.073Z,536.47
2023-01-06T06:39:16.214Z,539.51
2023-01-06T06:40:11.497Z,543.91
2023-01-06T06:41:06.546Z,542.14
2023-01-06T06:42:01.697Z,541.70
2023-01-06T06:42:56.601Z,544.80
2023-01-06T06:43:51.621Z,539.95
2023-01-06T06:44:46.804Z,535.18
2023-01-06T06:45:41.919Z,531.77
2023-01-06T06:46:36.983Z,531.34
2023-01-06T06:47:32.010Z,529.23
2023-01-06T06:48:27.040Z,529.65
2023-01-06T06:49:22.332Z,530.92
2023-01-06T06:50:17.435Z,530.50
2023-01-06T06:51:12.584Z,525.89
2023-01-06T06:52:07.965Z,516.53
2023-01-06T06:53:02.793Z,510.98
2023-01-06T06:53:57.871Z,517.33
2023-01-06T06:54:52.989Z,513.74
2023-01-06T06:55:48.069Z,507.87
2023-01-06T06:56:43.152Z,503.27
2023-01-06T06:57:38.155Z,500.62
2023-01-06T06:58:33.247Z,499.13
2023-01-06T06:59:28.205Z,493.95
2023-01-06T07:00:23.439Z,494.68
2023-01-06T07:01:18.546Z,498.38
2023-01-06T07:02:13.978Z,502.13
2023-01-06T07:03:14.008Z,497.64
2023-01-06T07:04:09.264Z,500.62
2023-01-06T07:05:04.547Z,501.00
2023-01-06T07:05:59.819Z,501.00
2023-01-06T07:06:55.041Z,496.89
2023-01-06T07:07:50.335Z,486.39
2023-01-06T07:08:45.516Z,467.95
2023-01-06T07:09:40.864Z,459.57
2023-01-06T07:10:36.116Z,457.99
2023-01-06T07:11:31.915Z,470.26
2023-01-06T07:12:27.125Z,474.28
2023-01-06T07:13:22.919Z,474.61
2023-01-06T07:14:18.119Z,463.08
2023-01-06T07:15:13.550Z,435.55
2023-01-06T07:16:09.318Z,436.12
2023-01-06T07:17:04.640Z,439.57
2023-01-06T07:17:59.739Z,434.14
2023-01-06T07:18:56.261Z,438.42
2023-01-06T07:19:51.554Z,449.95
2023-01-06T07:20:47.254Z,459.89
2023-01-06T07:21:42.522Z,469.27
2023-01-06T07:22:37.807Z,476.65
2023-01-06T07:23:33.691Z,479.05
2023-01-06T07:24:29.019Z,486.74
2023-01-06T07:25:25.133Z,495.79
2023-01-06T07:26:20.328Z,499.88
2023-01-06T07:27:15.627Z,506.71
2023-01-06T07:28:11.389Z,516.12
2023-01-06T07:29:06.732Z,520.56
2023-01-06T07:30:02.215Z,524.24
2023-01-06T07:30:58.408Z,526.31
2023-01-06T07:31:53.742Z,533.89
2023-01-06T07:32:49.502Z,536.90
2023-01-06T07:33:44.804Z,543.02
2023-01-06T07:34:40.411Z,546.14
2023-01-06T07:35:36.072Z,548.83
2023-01-06T07:36:31.409Z,555.23
2023-01-06T07:37:27.191Z,556.16
2023-01-06T07:38:22.504Z,555.69
2023-01-06T07:39:17.982Z,558.02
2023-01-06T07:40:13.619Z,548.83
2023-01-06T07:41:08.950Z,543.47
2023-01-06T07:42:04.483Z,542.14
2023-01-06T07:43:00.740Z,539.51
2023-01-06T07:43:56.074Z,537.34
2023-01-06T07:44:51.952Z,536.04
2023-01-06T07:45:47.404Z,536.04
2023-01-06T07:46:42.721Z,535.18
2023-01-06T07:47:38.724Z,528.39
2023-01-06T07:48:33.953Z,533.47
2023-01-06T07:49:29.689Z,533.04
2023-01-06T07:50:26.350Z,533.47
2023-01-06T07:51:20.453Z,535.61
2023-01-06T07:52:16.155Z,539.07
2023-01-06T07:53:11.621Z,535.18
2023-01-06T07:54:06.861Z,532.61
2023-01-06T07:55:03.374Z,530.50
2023-01-06T07:55:58.759Z,535.18
2023-01-06T07:56:54.507Z,532.61
2023-01-06T07:57:49.880Z,533.47
2023-01-06T07:58:45.259Z,534.32
2023-01-06T07:59:41.077Z,537.34
2023-01-06T08:00:36.536Z,531.77
2023-01-06T08:01:32.520Z,527.56
2023-01-06T08:02:27.682Z,517.73
2023-01-06T08:03:23.256Z,514.53
2023-01-06T08:04:18.843Z,511.38
2023-01-06T08:05:14.255Z,515.33
2023-01-06T08:06:09.856Z,514.93
2023-01-06T08:07:06.065Z,515.73
2023-01-06T08:08:01.287Z,511.38
2023-01-06T08:08:57.115Z,509.03
2023-01-06T08:09:52.512Z,502.89
2023-01-06T08:10:48.049Z,499.50
2023-01-06T08:11:43.300Z,498.01
2023-01-06T08:12:39.373Z,495.79
2023-01-06T08:13:34.848Z,498.75
2023-01-06T08:14:30.127Z,497.27
2023-01-06T08:15:25.925Z,494.68
2023-01-06T08:16:21.490Z,491.04
2023-01-06T08:17:17.127Z,489.96
2023-01-06T08:18:13.211Z,488.88
2023-01-06T08:19:08.722Z,493.22
2023-01-06T08:20:04.420Z,497.27
2023-01-06T08:20:59.836Z,501.00
2023-01-06T08:21:55.404Z,508.64
2023-01-06T08:22:51.161Z,510.98
2023-01-06T08:23:46.569Z,518.94
2023-01-06T08:24:42.627Z,524.24
2023-01-06T08:25:37.934Z,505.56
2023-01-06T08:26:33.195Z,509.81
2023-01-06T08:27:29.197Z,518.13
2023-01-06T08:28:24.607Z,524.65
2023-01-06T08:29:19.872Z,526.72
2023-01-06T08:30:15.289Z,526.72
2023-01-06T08:31:10.743Z,530.50
2023-01-06T08:32:11.157Z,524.65
2023-01-06T08:33:05.684Z,523.42
2023-01-06T08:34:01.124Z,529.23
2023-01-06T08:34:57.379Z,527.14
2023-01-06T08:35:52.827Z,528.39
2023-01-06T08:36:48.268Z,523.42
2023-01-06T08:37:43.704Z,518.94
2023-01-06T08:38:38.780Z,517.73
2023-01-06T08:39:33.771Z,507.48
2023-01-06T08:40:28.841Z,493.22
2023-01-06T08:41:23.875Z,493.22
2023-01-06T08:42:18.941Z,493.58
2023-01-06T08:43:14.007Z,493.95
2023-01-06T08:44:09.218Z,484.27
2023-01-06T08:45:04.141Z,482.51
2023-01-06T08:45:59.255Z,483.91
2023-01-06T08:46:54.278Z,482.86
2023-01-06T08:47:49.331Z,484.97
2023-01-06T08:48:45.207Z,484.97
2023-01-06T08:49:40.667Z,487.81
2023-01-06T08:50:36.109Z,492.13
2023-01-06T08:51:31.559Z,484.62
2023-01-06T08:52:27.316Z,480.08
2023-01-06T08:53:22.905Z,481.82
2023-01-06T08:54:18.628Z,480.77
2023-01-06T08:55:14.132Z,469.60
2023-01-06T08:56:09.398Z,471.93
2023-01-06T08:57:05.160Z,475.97
2023-01-06T08:59:25.350Z,428.28
2023-01-06T09:00:20.608Z,443.08
2023-01-06T09:01:16.193Z,447.54
2023-01-06T09:02:11.688Z,458.30
2023-01-06T09:03:06.995Z,460.84
2023-01-06T09:04:02.227Z,475.63
2023-01-06T09:04:57.668Z,482.86
2023-01-06T09:05:53.037Z,485.32
2023-01-06T09:06:48.411Z,488.88
2023-01-06T09:07:43.799Z,493.58
2023-01-06T09:08:38.958Z,429.38
2023-01-06T09:09:34.592Z,417.55
2023-01-06T09:10:29.823Z,440.15
2023-01-06T09:11:25.265Z,447.84
2023-01-06T09:12:20.493Z,454.56
2023-01-06T09:13:15.924Z,466.97
2023-01-06T09:14:11.362Z,473.27
2023-01-06T09:15:06.986Z,473.60
2023-01-06T09:16:02.496Z,481.82
2023-01-06T09:16:57.890Z,490.68
2023-01-06T09:17:53.204Z,496.52
2023-01-06T09:18:48.632Z,502.13
2023-01-06T09:19:44.005Z,508.26
2023-01-06T09:20:39.419Z,509.81
2023-01-06T09:21:34.789Z,511.38
2023-01-06T09:22:30.434Z,504.03
2023-01-06T09:23:25.684Z,501.76
2023-01-06T09:24:20.837Z,507.87
2023-01-06T09:25:16.303Z,512.55
2023-01-06T09:26:11.554Z,519.74
2023-01-06T09:27:07.016Z,520.96
2023-01-06T09:28:02.247Z,522.19
2023-01-06T09:28:57.722Z,527.98
2023-01-06T09:29:52.963Z,530.07
2023-01-06T09:30:48.337Z,533.47
2023-01-06T09:31:43.722Z,539.07
2023-01-06T09:32:39.227Z,535.18
2023-01-06T09:33:34.431Z,538.64
2023-01-06T09:34:29.761Z,543.91
2023-01-06T09:35:25.248Z,545.24
2023-01-06T09:36:20.485Z,547.93
2023-01-06T09:37:16.009Z,550.19
2023-01-06T09:38:11.373Z,541.70
2023-01-06T09:39:06.745Z,541.26
2023-01-06T09:40:01.974Z,533.47
2023-01-06T09:40:57.474Z,540.38
2023-01-06T09:41:52.703Z,543.02
2023-01-06T09:42:48.195Z,542.58
2023-01-06T09:43:44.250Z,540.82
2023-01-06T09:44:38.916Z,540.38
2023-01-06T09:45:34.110Z,542.58
2023-01-06T09:46:29.583Z,544.35
2023-01-06T09:47:24.775Z,543.47
2023-01-06T09:48:20.252Z,538.20
2023-01-06T09:49:15.447Z,543.02
2023-01-06T09:50:10.979Z,541.70
2023-01-06T09:51:06.385Z,542.14
2023-01-06T09:52:01.768Z,543.47
2023-01-06T09:52:57.210Z,548.38
2023-01-06T09:53:52.461Z,542.58
2023-01-06T09:54:47.670Z,541.70
2023-01-06T09:55:43.968Z,546.59
2023-01-06T09:56:38.376Z,547.48
2023-01-06T09:57:33.939Z,551.10
2023-01-06T09:58:29.138Z,546.14
2023-01-06T09:59:24.398Z,538.64
2023-01-06T10:00:20.367Z,530.07
2023-01-06T10:01:15.759Z,523.42
2023-01-06T10:02:11.512Z,530.92
2023-01-06T10:03:06.511Z,533.47
2023-01-06T10:04:01.942Z,526.31
2023-01-06T10:04:56.869Z,524.65
2023-01-06T10:05:52.098Z,520.56
2023-01-06T10:06:48.143Z,524.65
2023-01-06T10:07:42.171Z,522.60
2023-01-06T10:08:37.325Z,523.42
2023-01-06T10:09:32.263Z,523.42
2023-01-06T10:10:27.343Z,524.24
2023-01-06T10:11:23.032Z,523.83
2023-01-06T10:12:18.257Z,519.74
2023-01-06T10:13:13.216Z,516.12
2023-01-06T10:14:08.451Z,512.16
2023-01-06T10:15:03.619Z,510.59
2023-01-06T10:15:58.743Z,509.03
2023-01-06T10:16:53.811Z,509.81
2023-01-06T10:17:48.985Z,498.38
2023-01-06T10:18:43.909Z,498.01
2023-01-06T10:19:39.004Z,495.42
2023-01-06T10:20:34.005Z,490.68
2023-01-06T10:21:29.028Z,485.32
2023-01-06T10:22:24.042Z,491.77
2023-01-06T10:23:19.254Z,495.42
2023-01-06T10:24:14.131Z,489.24
2023-01-06T10:25:09.151Z,491.77
2023-01-06T10:26:04.152Z,493.95
2023-01-06T10:26:59.170Z,498.75
2023-01-06T10:27:54.283Z,503.65
2023-01-06T10:28:49.386Z,507.87
2023-01-06T10:29:44.344Z,502.13
2023-01-06T10:30:43.935Z,501.38
2023-01-06T10:31:34.519Z,496.52
2023-01-06T10:32:29.477Z,491.04
2023-01-06T10:34:20.608Z,487.45
2023-01-06T10:35:17.321Z,487.10
2023-01-06T10:36:12.517Z,490.32
2023-01-06T10:37:07.913Z,493.22
2023-01-06T10:38:03.427Z,499.13
2023-01-06T10:38:58.862Z,498.01
2023-01-06T10:39:54.092Z,466.32
2023-01-06T10:40:49.524Z,471.59
2023-01-06T10:41:44.971Z,482.51
2023-01-06T10:42:40.505Z,494.32
2023-01-06T10:43:36.019Z,504.79
2023-01-06T10:44:31.021Z,502.51
2023-01-06T10:45:26.023Z,501.00
2023-01-06T10:46:21.158Z,508.26
2023-01-06T10:47:16.132Z,512.55
2023-01-06T10:48:11.222Z,515.73
2023-01-06T10:49:06.419Z,517.73
2023-01-06T10:50:01.413Z,517.73
2023-01-06T10:50:58.695Z,521.37
2023-01-06T10:51:53.760Z,524.65
2023-01-06T10:52:48.731Z,524.65
2023-01-06T10:53:43.773Z,525.07
2023-01-06T10:54:38.853Z,525.07
2023-01-06T10:55:33.845Z,523.83
2023-01-06T10:56:28.836Z,522.60
2023-01-06T10:57:23.854Z,516.53
2023-01-06T10:58:18.846Z,519.74
2023-01-06T10:59:13.897Z,521.78
2023-01-06T11:00:08.939Z,512.95
2023-01-06T11:01:04.049Z,515.73
2023-01-06T11:01:59.241Z,512.16
2023-01-06T11:02:54.893Z,507.10
2023-01-06T11:03:50.131Z,529.65
2023-01-06T11:04:45.808Z,540.38
2023-01-06T11:05:41.283Z,557.55
2023-01-06T11:06:36.879Z,568.97
2023-01-06T11:07:32.304Z,582.90
2023-01-06T11:08:27.839Z,608.98
2023-01-06T11:09:23.273Z,620.31
2023-01-06T11:10:18.996Z,635.08
2023-01-06T11:11:27.307Z,630.28
2023-01-06T11:12:10.698Z,578.85
2023-01-06T11:13:05.001Z,514.93
2023-01-06T11:14:04.175Z,482.86
2023-01-06T11:14:59.610Z,467.95
2023-01-06T11:15:55.150Z,477.67
2023-01-06T11:16:50.372Z,485.32
2023-01-06T11:17:45.877Z,491.04
2023-01-06T11:18:41.237Z,492.49
2023-01-06T11:19:36.690Z,483.56
2023-01-06T11:20:32.019Z,464.37
2023-01-06T11:21:27.321Z,463.08
2023-01-06T11:22:22.765Z,473.94
2023-01-06T11:23:18.156Z,502.51
2023-01-06T11:24:13.653Z,523.01
2023-01-06T11:25:08.872Z,533.89
2023-01-06T11:26:04.484Z,548.83
2023-01-06T11:26:59.628Z,556.62
2023-01-06T11:27:55.076Z,551.10
2023-01-06T11:28:50.448Z,548.38
2023-01-06T11:29:45.808Z,554.77
2023-01-06T11:30:40.850Z,548.38
2023-01-06T11:31:36.035Z,544.35
2023-01-06T11:32:30.955Z,545.24
2023-01-06T11:33:25.938Z,545.69
2023-01-06T11:34:21.014Z,541.26